Time,TemperatureF,DewpointF,PressureIn,WindDirection,WindDirectionDegrees,WindSpeedMPH,WindSpeedGustMPH,Humidity,HourlyPrecipIn,Conditions,Clouds,dailyrainin,SoftwareType,DateUTC
2013-07-08 00:02:00,74.0,72.0,29.90,WNW,294,0.0,0.0,95,0.00,,,0.18,,2013-07-08 04:02:00,
2013-07-08 00:12:00,74.0,72.0,29.90,WNW,294,0.0,0.0,95,0.00,,,0.18,,2013-07-08 04:12:00,
2013-07-08 00:22:00,74.0,72.0,29.90,WNW,294,0.0,0.0,95,0.00,,,0.18,,2013-07-08 04:22:00,
2013-07-08 00:33:00,73.0,71.0,29.89,WNW,294,0.0,0.0,95,0.00,,,0.18,,2013-07-08 04:33:00,
2013-07-08 00:42:00,73.0,71.0,29.88,WNW,294,0.0,0.0,95,0.00,,,0.18,,2013-07-08 04:42:00,
2013-07-08 00:53:00,73.0,71.0,29.88,WNW,294,0.0,1.0,95,0.00,,,0.18,,2013-07-08 04:53:00,
2013-07-08 01:01:00,73.0,71.0,29.88,WNW,294,0.0,2.0,95,0.00,,,0.18,,2013-07-08 05:01:00,
2013-07-08 01:22:00,73.0,71.0,29.89,WNW,294,0.0,0.0,95,0.00,,,0.18,,2013-07-08 05:22:00,
2013-07-08 01:33:00,73.0,71.0,29.89,WNW,294,0.0,0.0,95,0.00,,,0.18,,2013-07-08 05:33:00,
2013-07-08 01:43:00,73.0,71.0,29.89,WNW,294,0.0,1.0,95,0.00,,,0.18,,2013-07-08 05:43:00,
2013-07-08 01:53:00,73.0,71.0,29.89,WNW,294,0.0,0.0,95,0.00,,,0.18,,2013-07-08 05:53:00,
2013-07-08 02:01:00,73.0,71.0,29.90,WNW,294,0.0,0.0,95,0.00,,,0.18,,2013-07-08 06:01:00,
2013-07-08 02:12:00,73.0,71.0,29.90,WNW,294,0.0,0.0,95,0.00,,,0.18,,2013-07-08 06:12:00,
2013-07-08 02:22:00,72.0,70.0,29.89,WNW,294,0.0,0.0,95,0.00,,,0.18,,2013-07-08 06:22:00,
2013-07-08 02:34:00,72.0,70.0,29.89,WNW,294,0.0,0.0,95,0.00,,,0.18,,2013-07-08 06:34:00,
2013-07-08 02:43:00,72.0,70.0,29.90,WNW,294,0.0,0.0,95,0.00,,,0.18,,2013-07-08 06:43:00,
2013-07-08 02:53:00,72.0,70.0,29.89,WNW,294,0.0,0.0,95,0.00,,,0.18,,2013-07-08 06:53:00,
2013-07-08 03:02:00,72.0,70.0,29.89,WNW,294,0.0,0.0,95,0.00,,,0.18,,2013-07-08 07:02:00,
2013-07-08 03:12:00,72.0,70.0,29.88,WNW,294,0.0,0.0,95,0.00,,,0.18,,2013-07-08 07:12:00,
2013-07-08 03:22:00,72.0,70.0,29.89,WNW,294,0.0,0.0,95,0.00,,,0.18,,2013-07-08 07:22:00,
2013-07-08 03:34:00,72.0,70.0,29.89,WNW,294,0.0,0.0,95,0.00,,,0.18,,2013-07-08 07:34:00,
2013-07-08 03:44:00,72.0,70.0,29.89,WNW,294,0.0,0.0,95,0.00,,,0.18,,2013-07-08 07:44:00,
2013-07-08 03:53:00,72.0,70.0,29.88,WNW,294,0.0,0.0,95,0.00,,,0.18,,2013-07-08 07:53:00,
2013-07-08 04:02:00,72.0,70.0,29.88,WNW,294,0.0,0.0,95,0.00,,,0.18,,2013-07-08 08:02:00,
2013-07-08 04:22:00,72.0,70.0,29.88,WNW,294,0.0,0.0,95,0.00,,,0.18,,2013-07-08 08:22:00,
2013-07-08 04:33:00,72.0,70.0,29.88,WNW,294,0.0,1.0,95,0.00,,,0.18,,2013-07-08 08:33:00,
2013-07-08 04:42:00,71.0,69.0,29.88,WNW,294,0.0,0.0,95,0.00,,,0.18,,2013-07-08 08:42:00,
2013-07-08 04:53:00,71.0,69.0,29.88,WNW,294,0.0,0.0,95,0.00,,,0.18,,2013-07-08 08:53:00,
2013-07-08 05:02:00,71.0,69.0,29.88,WNW,294,0.0,1.0,95,0.00,,,0.18,,2013-07-08 09:02:00,
2013-07-08 05:11:00,71.0,69.0,29.88,WNW,294,0.0,0.0,95,0.00,,,0.18,,2013-07-08 09:11:00,
2013-07-08 05:22:00,71.0,69.0,29.88,WNW,294,0.0,0.0,95,0.00,,,0.18,,2013-07-08 09:22:00,
2013-07-08 05:34:00,71.0,69.0,29.88,WNW,294,0.0,1.0,95,0.00,,,0.18,,2013-07-08 09:34:00,
2013-07-08 05:43:00,71.0,69.0,29.88,WNW,294,0.0,2.0,95,0.00,,,0.18,,2013-07-08 09:43:00,
2013-07-08 05:53:00,71.0,69.0,29.88,WNW,294,0.0,2.0,95,0.00,,,0.18,,2013-07-08 09:53:00,
2013-07-08 06:02:00,71.0,69.0,29.88,WNW,294,0.0,2.0,95,0.00,,,0.18,,2013-07-08 10:02:00,
2013-07-08 06:11:00,71.0,69.0,29.89,WNW,294,0.0,1.0,95,0.00,,,0.18,,2013-07-08 10:11:00,
2013-07-08 06:22:00,71.0,70.0,29.89,WNW,294,0.0,3.0,96,0.00,,,0.18,,2013-07-08 10:22:00,
2013-07-08 06:34:00,71.0,69.0,29.89,WNW,294,0.0,4.0,95,0.00,,,0.18,,2013-07-08 10:34:00,
2013-07-08 06:53:00,71.0,70.0,29.89,WNW,294,1.0,4.0,96,0.00,,,0.18,,2013-07-08 10:53:00,
2013-07-08 07:02:00,71.0,70.0,29.89,West,263,2.0,6.0,96,0.00,,,0.18,,2013-07-08 11:02:00,
2013-07-08 07:11:00,71.0,70.0,29.89,West,263,2.0,6.0,96,0.00,,,0.18,,2013-07-08 11:11:00,
2013-07-08 07:33:00,73.0,72.0,29.90,SW,223,1.0,11.0,96,0.00,,,0.18,,2013-07-08 11:33:00,
2013-07-08 07:43:00,73.0,72.0,29.90,SW,227,2.0,10.0,96,0.00,,,0.18,,2013-07-08 11:43:00,
2013-07-08 07:53:00,73.0,72.0,29.90,WSW,240,0.0,12.0,96,0.00,,,0.18,,2013-07-08 11:53:00,
2013-07-08 08:02:00,74.0,73.0,29.90,West,265,3.0,10.0,96,0.00,,,0.18,,2013-07-08 12:02:00,
2013-07-08 08:22:00,75.0,74.0,29.91,WSW,238,2.0,9.0,96,0.00,,,0.18,,2013-07-08 12:22:00,
2013-07-08 08:43:00,77.0,75.0,29.91,WSW,253,0.0,9.0,93,0.00,,,0.18,,2013-07-08 12:43:00,
2013-07-08 08:53:00,77.0,75.0,29.91,WSW,253,0.0,9.0,93,0.00,,,0.18,,2013-07-08 12:53:00,
2013-07-08 09:02:00,79.0,75.0,29.91,NW,310,5.0,10.0,87,0.00,,,0.18,,2013-07-08 13:02:00,
2013-07-08 09:11:00,79.0,75.0,29.91,NW,310,5.0,10.0,87,0.00,,,0.18,,2013-07-08 13:11:00,
2013-07-08 09:22:00,80.0,76.0,29.91,SW,217,2.0,6.0,87,0.00,,,0.18,,2013-07-08 13:22:00,
2013-07-08 09:33:00,81.0,76.0,29.91,WNW,284,5.0,12.0,84,0.00,,,0.18,,2013-07-08 13:33:00,
2013-07-08 09:42:00,81.0,76.0,29.91,West,281,4.0,10.0,85,0.00,,,0.18,,2013-07-08 13:42:00,
2013-07-08 09:53:00,81.0,76.0,29.91,West,281,4.0,10.0,85,0.00,,,0.18,,2013-07-08 13:53:00,
2013-07-08 10:34:00,81.0,75.0,29.91,NNW,339,1.0,10.0,83,0.00,,,0.18,,2013-07-08 14:34:00,
2013-07-08 10:43:00,82.0,76.0,29.91,NW,320,2.0,9.0,83,0.00,,,0.18,,2013-07-08 14:43:00,
2013-07-08 10:53:00,82.0,76.0,29.91,NW,320,2.0,9.0,83,0.00,,,0.18,,2013-07-08 14:53:00,
2013-07-08 11:02:00,83.0,77.0,29.91,SW,223,4.0,9.0,83,0.00,,,0.18,,2013-07-08 15:02:00,
2013-07-08 11:11:00,84.0,76.0,29.91,NW,313,2.0,10.0,78,0.00,,,0.18,,2013-07-08 15:11:00,
2013-07-08 11:33:00,84.0,76.0,29.92,West,263,1.0,9.0,76,0.00,,,0.18,,2013-07-08 15:33:00,
2013-07-08 11:53:00,85.0,77.0,29.92,WSW,257,4.0,10.0,77,0.00,,,0.18,,2013-07-08 15:53:00,
2013-07-08 12:01:00,86.0,78.0,29.92,WSW,246,4.0,8.0,76,0.00,,,0.18,,2013-07-08 16:01:00,
2013-07-08 12:11:00,86.0,78.0,29.92,WSW,246,4.0,8.0,76,0.00,,,0.18,,2013-07-08 16:11:00,
2013-07-08 12:22:00,86.0,77.0,29.92,SW,215,0.0,6.0,74,0.00,,,0.18,,2013-07-08 16:22:00,
2013-07-08 12:43:00,87.0,78.0,29.92,SW,233,4.0,10.0,74,0.00,,,0.18,,2013-07-08 16:43:00,
2013-07-08 12:56:00,87.0,78.0,29.92,SW,233,4.0,10.0,74,0.00,,,0.18,,2013-07-08 16:56:00,
2013-07-08 13:14:00,87.0,76.0,29.92,SW,223,3.0,11.0,70,0.00,,,0.18,,2013-07-08 17:14:00,
2013-07-08 13:54:00,87.0,75.0,29.92,WSW,239,5.0,11.0,68,0.00,,,0.18,,2013-07-08 17:54:00,
2013-07-08 14:12:00,87.0,77.0,29.92,WSW,253,0.0,13.0,72,0.00,,,0.18,,2013-07-08 18:12:00,
2013-07-08 14:45:00,89.0,77.0,29.92,NW,313,2.0,14.0,67,0.00,,,0.18,,2013-07-08 18:45:00,
2013-07-08 14:58:00,88.0,75.0,29.92,WSW,242,0.0,15.0,65,0.00,,,0.18,,2013-07-08 18:58:00,
2013-07-08 15:15:00,88.0,76.0,29.92,SW,236,0.0,12.0,67,0.00,,,0.18,,2013-07-08 19:15:00,
2013-07-08 15:54:00,85.0,75.0,29.92,WSW,252,0.0,7.0,71,0.00,,,0.18,,2013-07-08 19:54:00,
2013-07-08 16:01:00,85.0,75.0,29.92,SW,225,1.0,6.0,73,0.00,,,0.18,,2013-07-08 20:01:00,
2013-07-08 16:16:00,85.0,75.0,29.92,SSW,211,1.0,9.0,71,0.00,,,0.18,,2013-07-08 20:16:00,
2013-07-08 16:46:00,88.0,74.0,29.91,SW,214,2.0,5.0,63,0.00,,,0.18,,2013-07-08 20:46:00,
2013-07-08 17:02:00,89.0,77.0,29.91,WSW,255,3.0,6.0,67,0.00,,,0.18,,2013-07-08 21:02:00,
2013-07-08 17:54:00,87.0,75.0,29.91,SW,224,0.0,5.0,68,0.00,,,0.00,,2013-07-08 21:54:00,
2013-07-08 18:02:00,86.0,76.0,29.91,WSW,244,1.0,5.0,72,0.00,,,0.00,,2013-07-08 22:02:00,
2013-07-08 18:19:00,85.0,76.0,29.91,West,265,2.0,6.0,75,0.00,,,0.00,,2013-07-08 22:19:00,
2013-07-08 18:46:00,84.0,76.0,29.91,East,93,4.0,9.0,76,0.00,,,0.00,,2013-07-08 22:46:00,
2013-07-08 18:56:00,83.0,75.0,29.91,NE,34,2.0,7.0,76,0.00,,,0.00,,2013-07-08 22:56:00,
2013-07-08 19:02:00,82.0,74.0,29.92,East,86,1.0,10.0,77,0.00,,,0.00,,2013-07-08 23:02:00,
2013-07-08 19:18:00,81.0,74.0,29.93,East,95,2.0,10.0,79,0.00,,,0.00,,2013-07-08 23:18:00,
2013-07-08 19:24:00,80.0,73.0,29.92,ESE,115,1.0,5.0,80,0.00,,,0.00,,2013-07-08 23:24:00,
2013-07-08 19:33:00,79.0,72.0,29.93,East,101,1.0,6.0,80,0.00,,,0.00,,2013-07-08 23:33:00,
2013-07-08 19:56:00,78.0,72.0,29.93,ENE,73,1.0,6.0,82,0.00,,,0.00,,2013-07-08 23:56:00,
2013-07-08 20:02:00,78.0,72.0,29.94,North,5,4.0,10.0,83,0.00,,,0.00,,2013-07-09 00:02:00,
2013-07-08 20:26:00,74.0,68.0,29.95,NNE,26,6.0,14.0,83,0.00,,,0.00,,2013-07-09 00:26:00,
2013-07-08 20:43:00,72.0,68.0,29.97,NE,38,5.0,11.0,86,0.00,,,0.00,,2013-07-09 00:43:00,
2013-07-08 20:55:00,71.0,67.0,29.98,North,11,3.0,10.0,86,0.00,,,0.00,,2013-07-09 00:55:00,
2013-07-08 21:02:00,71.0,67.0,30.00,NNW,333,5.0,11.0,86,0.00,,,0.00,,2013-07-09 01:02:00,
2013-07-08 21:17:00,70.0,66.0,29.99,NNE,12,3.0,6.0,88,0.14,,,0.14,,2013-07-09 01:17:00,
2013-07-08 21:35:00,69.0,66.0,29.99,NNE,14,3.0,6.0,90,0.18,,,0.18,,2013-07-09 01:35:00,
2013-07-08 22:32:00,68.0,66.0,30.00,NE,56,1.0,6.0,93,0.05,,,0.19,,2013-07-09 02:32:00,
2013-07-08 22:55:00,68.0,66.0,30.00,East,101,1.0,3.0,93,0.01,,,0.19,,2013-07-09 02:55:00,
2013-07-08 23:17:00,68.0,66.0,30.01,East,101,1.0,4.0,94,0.00,,,0.19,,2013-07-09 03:17:00,
2013-07-08 23:24:00,68.0,66.0,30.02,East,100,0.0,5.0,94,0.00,,,0.19,,2013-07-09 03:24:00,
2013-07-08 23:46:00,68.0,66.0,30.01,NNE,17,2.0,6.0,94,0.00,,,0.19,,2013-07-09 03:46:00,
2013-07-08 23:55:00,67.0,65.0,30.01,NNE,18,1.0,5.0,94,0.00,,,0.19,,2013-07-09 03:55:00,